Muscatine, IA

9:20 AM CDT on July 28, 2017 (GMT -0500)
Muscatine Municipal

Weather History for KMUT - April, 2013

Change the Weather History Date:

Wednesday, April 17, 2013

  Actual Average Record
Temperature  
Mean Temperature 47 °F -  
Max Temperature 53 °F 65 °F 87 °F (2004)
Min Temperature 41 °F 41 °F 23 °F (1951)
Degree Days  
Heating Degree Days 18    
Moisture  
Dew Point 39 °F    
Average Humidity 79    
Maximum Humidity 88    
Minimum Humidity 62    
Precipitation  
Precipitation 2.61 in - - ()
Sea Level Pressure  
Sea Level Pressure 30.00 in    
Wind  
Wind Speed 10 mph (ENE)    
Max Wind Speed 22 mph    
Max Gust Speed 33 mph    
Visibility 9 miles    
Events Rain    
Averages and records for this station are not official NWS values.
T = Trace of Precipitation, MM = Missing Value Source: NWS Daily Summary

Daily Weather History Graph

Daily Weather History Graph

Search for Another Location

Airport or City:

Trip Planner

Search our weather history database for the weather conditions in past years. The results will help you decide how hot, cold, wet, or windy it might be!

Date:

Astronomy

Apr. 17, 2013 Rise Set
Actual Time 6:21 AM CDT 7:47 PM CDT
Civil Twilight 5:52 AM CDT 8:16 PM CDT
Nautical Twilight 5:17 AM CDT 8:51 PM CDT
Astronomical Twilight 4:41 AM CDT 9:28 PM CDT
Moon 11:34 AM CDT (4/17) 1:26 AM CDT (4/17)
Length of Visible Light 14h 23m
Length of Day
13h 25m
Waxing Crescent, 42% of the Moon is Illuminated
Apr 17
Waxing Crescent
Apr 18
First Quarter
Apr 25
Full
May 2
Last Quarter
May 9
New

Hourly Weather History & Observations

Time (CDT) Temp. Windchill Dew Point Humidity Pressure Visibility Wind Dir Wind Speed Gust Speed Precip Events Conditions
12:15 AM 48.2 °F - 37.4 °F 66% 30.21 in 10.0 mi NNE 5.8 mph - N/A   Overcast
12:35 AM 48.2 °F - 37.4 °F 66% 30.21 in 10.0 mi North 3.5 mph - N/A   Overcast
12:55 AM 48.2 °F - 37.4 °F 66% 30.20 in 10.0 mi NE 5.8 mph - N/A   Overcast
1:15 AM 48.2 °F - 37.4 °F 66% 30.21 in 10.0 mi NNE 3.5 mph - N/A   Overcast
1:35 AM 48.2 °F - 37.4 °F 66% 30.21 in 10.0 mi NE 6.9 mph - N/A   Overcast
1:55 AM 48.2 °F - 37.4 °F 66% 30.20 in 10.0 mi ENE 10.4 mph - N/A   Light Drizzle
2:15 AM 48.2 °F - 37.4 °F 66% 30.20 in 10.0 mi ENE 6.9 mph - N/A   Overcast
2:35 AM 50.0 °F - 37.4 °F 62% 30.20 in 10.0 mi East 12.7 mph 16.1 mph N/A   Overcast
2:55 AM 48.2 °F - 35.6 °F 62% 30.20 in 10.0 mi East 17.3 mph 24.2 mph N/A   Overcast
3:15 AM 46.4 °F 41.1 °F 35.6 °F 66% 30.20 in 10.0 mi East 11.5 mph 23.0 mph N/A   Overcast
3:35 AM 46.4 °F 41.1 °F 33.8 °F 62% 30.19 in 10.0 mi East 11.5 mph - N/A   Overcast
3:55 AM 46.4 °F 38.7 °F 33.8 °F 62% 30.17 in 10.0 mi East 20.7 mph 27.6 mph N/A   Overcast
4:15 AM 44.6 °F 37.4 °F 33.8 °F 66% 30.17 in 10.0 mi East 16.1 mph 23.0 mph N/A   Overcast
4:35 AM 44.6 °F 37.4 °F 35.6 °F 71% 30.17 in 10.0 mi East 16.1 mph 24.2 mph N/A Rain Light Rain
4:55 AM 44.6 °F 41.4 °F 35.6 °F 71% 30.22 in 10.0 mi NNE 5.8 mph 12.7 mph 0.07 in Rain Light Rain
5:15 AM 44.6 °F 38.8 °F 35.6 °F 71% 30.17 in 10.0 mi East 11.5 mph 23.0 mph N/A   Overcast
5:35 AM 42.8 °F 41.1 °F 35.6 °F 76% 30.17 in 10.0 mi East 3.5 mph 28.8 mph 0.03 in Rain Light Rain
5:55 AM 42.8 °F 38.0 °F 35.6 °F 76% 30.18 in 10.0 mi East 8.1 mph 27.6 mph 0.12 in Rain Light Rain
6:15 AM 42.8 °F 36.2 °F 35.6 °F 76% 30.14 in 10.0 mi East 12.7 mph - 0.09 in Rain Light Rain
6:35 AM 42.8 °F 35.4 °F 35.6 °F 76% 30.12 in 7.0 mi East 15.0 mph 25.3 mph 0.14 in Rain Light Rain
6:55 AM 41.0 °F 33.9 °F 35.6 °F 81% 30.10 in 7.0 mi East 12.7 mph 33.4 mph 0.17 in Rain Light Rain
7:15 AM 42.8 °F 35.1 °F 35.6 °F 76% 30.09 in 10.0 mi East 16.1 mph 19.6 mph N/A Rain Light Rain
7:35 AM 42.8 °F 37.0 °F 37.4 °F 81% 30.15 in 10.0 mi NE 10.4 mph - N/A   Overcast
7:55 AM 42.8 °F 35.8 °F 37.4 °F 81% 30.13 in 10.0 mi ENE 13.8 mph 19.6 mph N/A   Overcast
8:15 AM 42.8 °F 36.6 °F 37.4 °F 81% 30.13 in 10.0 mi ENE 11.5 mph - N/A   Overcast
8:35 AM 42.8 °F 33.8 °F 37.4 °F 81% 30.04 in 10.0 mi East 21.9 mph 28.8 mph N/A   Overcast
9:15 AM 44.6 °F 38.4 °F 35.6 °F 71% 30.08 in 10.0 mi East 12.7 mph 19.6 mph N/A   Overcast
9:35 AM 44.6 °F 37.4 °F 35.6 °F 71% 30.06 in 10.0 mi East 16.1 mph 20.7 mph N/A   Overcast
9:55 AM 42.8 °F 35.8 °F 35.6 °F 76% 30.04 in 10.0 mi ENE 13.8 mph 25.3 mph N/A   Overcast
10:15 AM 42.8 °F 36.6 °F 37.4 °F 81% 30.03 in 5.0 mi East 11.5 mph - N/A Rain Rain
10:35 AM 42.8 °F 35.4 °F 37.4 °F 81% 30.00 in 10.0 mi East 15.0 mph 18.4 mph N/A   Overcast
10:55 AM 42.8 °F 38.0 °F 37.4 °F 81% 30.02 in 10.0 mi ESE 8.1 mph 20.7 mph N/A Rain Light Rain
11:15 AM 42.8 °F 41.1 °F 37.4 °F 81% 30.09 in 3.0 mi North 3.5 mph - 0.22 in Rain Heavy Rain
11:35 AM 42.8 °F 35.8 °F 37.4 °F 81% 30.03 in 4.0 mi ENE 13.8 mph 27.6 mph 0.44 in Rain Rain
11:55 AM 42.8 °F 35.4 °F 37.4 °F 81% 30.12 in 7.0 mi NNW 15.0 mph - 0.46 in Rain Light Rain
12:15 PM 42.8 °F 36.6 °F 37.4 °F 81% 30.11 in 1.5 mi NNE 11.5 mph - 0.18 in Rain Rain
12:35 PM 42.8 °F 35.8 °F 37.4 °F 81% 30.07 in 5.0 mi NE 13.8 mph - 0.34 in   Overcast
12:55 PM 42.8 °F 35.4 °F 37.4 °F 81% 30.03 in 7.0 mi East 15.0 mph 24.2 mph 0.40 in Rain Light Rain
1:15 PM 42.8 °F 35.8 °F 37.4 °F 81% 30.01 in 10.0 mi East 13.8 mph 17.3 mph 0.01 in   Scattered Clouds
1:35 PM 42.8 °F 36.2 °F 39.2 °F 87% 29.98 in 10.0 mi East 12.7 mph 17.3 mph 0.01 in   Light Drizzle
1:55 PM 42.8 °F 37.0 °F 39.2 °F 87% 30.01 in 10.0 mi East 10.4 mph 16.1 mph 0.01 in Rain Light Rain
2:15 PM 42.8 °F 34.8 °F 39.2 °F 87% 29.98 in 7.0 mi East 17.3 mph 23.0 mph 0.03 in Rain Rain
2:35 PM 42.8 °F 36.2 °F 39.2 °F 87% 29.98 in 10.0 mi East 12.7 mph - 0.06 in Rain Rain
2:55 PM 42.8 °F 35.1 °F 39.2 °F 87% 29.98 in 7.0 mi East 16.1 mph 23.0 mph 0.12 in Rain Rain
3:35 PM 44.6 °F 38.4 °F 39.2 °F 81% 29.93 in 10.0 mi East 12.7 mph - 0.09 in Rain Rain
3:55 PM 44.6 °F 40.7 °F 39.2 °F 81% 29.90 in 10.0 mi East 6.9 mph - 0.16 in Rain Rain
4:15 PM 44.6 °F 38.4 °F 39.2 °F 81% 29.86 in 10.0 mi East 12.7 mph 18.4 mph 0.03 in Rain Light Rain
4:35 PM 44.6 °F 40.7 °F 41.0 °F 87% 29.88 in 10.0 mi ESE 6.9 mph - 0.04 in Rain Light Rain
4:55 PM 44.6 °F 41.4 °F 41.0 °F 87% 29.90 in 10.0 mi ESE 5.8 mph - 0.05 in Rain Light Rain
5:15 PM 44.6 °F 39.2 °F 41.0 °F 87% 29.91 in 10.0 mi East 10.4 mph 16.1 mph 0.04 in Rain Rain
5:35 PM 44.6 °F 40.7 °F 41.0 °F 87% 29.93 in 10.0 mi SSE 6.9 mph 15.0 mph 0.11 in Rain Rain
5:55 PM 44.6 °F 38.1 °F 41.0 °F 87% 29.85 in 10.0 mi East 13.8 mph - 0.18 in Rain Light Rain
6:15 PM 44.6 °F 37.8 °F 41.0 °F 87% 29.82 in 10.0 mi East 15.0 mph - 0.06 in Rain Rain
6:35 PM 46.4 °F 41.5 °F 42.8 °F 87% 29.82 in 10.0 mi ESE 10.4 mph - 0.11 in Rain Rain
6:55 PM 46.4 °F 41.5 °F 42.8 °F 87% 29.79 in 10.0 mi ESE 10.4 mph - 0.16 in Rain Rain
7:15 PM 48.2 °F - 44.6 °F 87% 29.80 in 10.0 mi South 6.9 mph - 0.03 in Rain Light Rain
7:35 PM 48.2 °F - 44.6 °F 87% 29.80 in 10.0 mi SE 10.4 mph - 0.03 in Rain Light Rain
7:55 PM 48.2 °F - 44.6 °F 87% 29.78 in 10.0 mi ENE 4.6 mph - 0.04 in   Mostly Cloudy
8:15 PM 48.2 °F - 44.6 °F 87% 29.78 in 10.0 mi Calm Calm - N/A Rain Light Rain
8:35 PM 48.2 °F - 44.6 °F 87% 29.75 in 10.0 mi NE 5.8 mph - 0.01 in Rain Light Rain
8:55 PM 48.2 °F - 44.6 °F 87% 29.73 in 5.0 mi NNE 6.9 mph - 0.02 in Rain Rain
9:15 PM 50.0 °F - 46.4 °F 87% 29.75 in 10.0 mi ENE 5.8 mph - 0.03 in Rain Rain
9:55 PM 53.6 °F - 48.2 °F 82% 29.69 in 10.0 mi East 10.4 mph - 0.05 in Rain Light Rain
10:15 PM 53.6 °F - 48.2 °F 82% 29.70 in 10.0 mi ENE 6.9 mph - N/A   Mostly Cloudy
10:35 PM 51.8 °F - 48.2 °F 88% 29.76 in 7.0 mi NW 15.0 mph - 0.06 in Rain Heavy Rain
10:55 PM 51.8 °F - 46.4 °F 82% 29.78 in 10.0 mi NNW 19.6 mph 31.1 mph 0.15 in Rain Heavy Rain
11:15 PM 51.8 °F - 46.4 °F 82% 29.78 in 5.0 mi North 16.1 mph - 0.24 in Rain Heavy Rain
11:35 PM 51.8 °F - 48.2 °F 88% 29.76 in 10.0 mi NNE 15.0 mph - 0.32 in Rain Rain
11:55 PM 51.8 °F - 48.2 °F 88% 29.73 in 5.0 mi ENE 17.3 mph - 0.45 in Rain Rain